This is the latest recevied weather packets stored in our database for station/object KN6ZYR. If no packets are shown the sender has not sent any weather packets the latest 1 day(s).
| Time | Temp. | Humidity | Pressure | Rain* | Wind** | Luminosity | Snow |
|---|---|---|---|---|---|---|---|
| 1778083412 | 18.33° C | 45% | 1023.5 hPa | 0 mm | - | 437 W/m² | - |
| 1778081679 | 16.67° C | 46% | 1023.5 hPa | 0 mm | - | 135 W/m² | - |
| 1778081073 | 15.56° C | 48% | 1023.5 hPa | 0 mm | - | 338 W/m² | - |
| 1778080772 | 15° C | 50% | 1023.4 hPa | 0 mm | - | 328 W/m² | - |
| 1778078953 | 11.67° C | 64% | 1023.4 hPa | 0 mm | - | 57 W/m² | - |
| 1778078649 | 11.67° C | 64% | 1023.2 hPa | 0 mm | - | 55 W/m² | - |
| 1778078348 | 12.22° C | 60% | 1023.3 hPa | 0 mm | - | 54 W/m² | - |
| 1778076836 | 12.22° C | 60% | 1023.3 hPa | 0 mm | - | 50 W/m² | - |
| 1778076534 | 12.78° C | 56% | 1023 hPa | 0 mm | - | 39 W/m² | - |
| 1778075017 | 12.22° C | 58% | 1022.4 hPa | 0 mm | - | 29 W/m² | - |
| 1778074411 | 11.67° C | 58% | 1022.5 hPa | 0 mm | - | 26 W/m² | - |
| 1778073805 | 10.56° C | 64% | 1022.3 hPa | 0 mm | - | 20 W/m² | - |
| 1778073503 | 10.56° C | 67% | 1022.4 hPa | 0 mm | - | 18 W/m² | - |
| 1778071687 | 11.11° C | 64% | 1022.1 hPa | 0 mm | - | 2 W/m² | - |
| 1778070173 | 9.44° C | 74% | 1021.7 hPa | 0 mm | - | 0 W/m² | - |
| 1778069568 | 10° C | 72% | 1021.7 hPa | 0 mm | - | 0 W/m² | - |
| 1778069265 | 10° C | 71% | 1021.5 hPa | 0 mm | - | 0 W/m² | - |
| 1778068963 | 10° C | 70% | 1021.4 hPa | 0 mm | - | 0 W/m² | - |
| 1778068056 | 10° C | 72% | 1021.4 hPa | 0 mm | - | 0 W/m² | - |
| 1778066240 | 10.56° C | 69% | 1021.5 hPa | 0 mm | - | 0 W/m² | - |
| 1778065634 | 10.56° C | 68% | 1021.3 hPa | 0 mm | - | 0 W/m² | - |
| 1778064424 | 11.67° C | 63% | 1021.3 hPa | 0 mm | - | 0 W/m² | - |
| 1778064121 | 12.22° C | 62% | 1020.9 hPa | 0 mm | - | 0 W/m² | - |
| 1778063818 | 11.67° C | 63% | 1020.8 hPa | 0 mm | - | 0 W/m² | - |
| 1778063515 | 12.22° C | 63% | 1020.9 hPa | 0 mm | - | 0 W/m² | - |
* Rain latest hour (hover to see other rain measurements)
** Current wind speed in m/s (hover to see current wind gust speed)